createdAt,value
2023-04-22T00:02:02.030Z,100984.31
2023-04-22T00:04:29.172Z,100998.34
2023-04-22T00:06:55.988Z,100975.84
2023-04-22T00:09:22.484Z,100982.19
2023-04-22T00:11:48.895Z,100973.47
2023-04-22T00:14:15.402Z,100977.88
2023-04-22T00:16:41.942Z,100969.84
2023-04-22T00:19:08.528Z,100963.41
2023-04-22T00:21:35.034Z,100964.16
2023-04-22T00:24:01.725Z,100971.72
2023-04-22T00:26:28.185Z,100960.69
2023-04-22T00:28:54.663Z,100958.66
2023-04-22T00:31:21.212Z,100947.59
2023-04-22T00:33:47.694Z,100950.41
2023-04-22T00:36:14.128Z,100953.28
2023-04-22T00:38:43.918Z,100963.81
2023-04-22T00:41:10.503Z,100945.88
2023-04-22T00:43:36.960Z,100955.34
2023-04-22T00:46:04.060Z,100942.25
2023-04-22T00:48:31.640Z,100943.19
2023-04-22T00:50:58.109Z,100940.66
2023-04-22T00:53:24.553Z,100944.72
2023-04-22T00:55:51.174Z,100956.03
2023-04-22T00:58:19.167Z,100947.16
2023-04-22T01:00:45.967Z,100938.28
2023-04-22T01:03:13.630Z,100931.22
2023-04-22T01:05:41.497Z,100949.19
2023-04-22T01:08:07.959Z,100936.19
2023-04-22T01:10:35.317Z,100927.75
2023-04-22T01:13:01.916Z,100935.94
2023-04-22T01:15:28.840Z,100922.25
2023-04-22T01:17:56.362Z,100938.59
2023-04-22T01:20:23.396Z,100932.38
2023-04-22T01:22:54.327Z,100931.97
2023-04-22T01:25:21.441Z,100928.78
2023-04-22T01:27:48.043Z,100939.44
2023-04-22T01:30:14.871Z,100927.47
2023-04-22T01:32:41.465Z,100940.06
2023-04-22T01:50:52.243Z,100904.00
2023-04-22T01:53:18.767Z,100900.56
2023-04-22T01:55:45.355Z,100918.84
2023-04-22T01:58:11.820Z,100919.78
2023-04-22T02:00:38.342Z,100918.63
2023-04-22T02:03:04.891Z,100883.78
2023-04-22T02:05:31.511Z,100894.75
2023-04-22T02:07:58.001Z,100893.50
2023-04-22T02:10:24.508Z,100891.78
2023-04-22T02:12:51.040Z,100903.03
2023-04-22T02:15:17.575Z,100900.25
2023-04-22T02:17:44.186Z,100898.25
2023-04-22T02:20:11.447Z,100893.75
2023-04-22T02:22:38.529Z,100887.44
2023-04-22T02:25:05.945Z,100884.13
2023-04-22T02:27:32.415Z,100889.25
2023-04-22T02:29:58.927Z,100874.09
2023-04-22T02:32:25.641Z,100865.63
2023-04-22T02:34:52.474Z,100861.41
2023-04-22T02:37:19.341Z,100882.25
2023-04-22T02:39:45.864Z,100866.09
2023-04-22T02:42:12.323Z,100870.19
2023-04-22T02:44:38.828Z,100869.72
2023-04-22T02:47:07.120Z,100865.13
2023-04-22T02:49:33.599Z,100868.22
2023-04-22T02:52:00.029Z,100868.81
2023-04-22T02:54:26.600Z,100860.78
2023-04-22T02:56:53.137Z,100862.06
2023-04-22T02:59:19.582Z,100865.41
2023-04-22T03:01:46.018Z,100872.72
2023-04-22T03:04:14.402Z,100879.97
2023-04-22T03:06:41.325Z,100860.66
2023-04-22T03:09:07.743Z,100868.81
2023-04-22T03:11:34.224Z,100848.25
2023-04-22T03:14:00.673Z,100861.13
2023-04-22T03:16:27.184Z,100861.03
2023-04-22T03:18:53.635Z,100864.81
2023-04-22T03:21:20.072Z,100868.88
2023-04-22T03:23:46.513Z,100860.78
2023-04-22T03:26:13.738Z,100855.59
2023-04-22T03:28:40.277Z,100856.47
2023-04-22T03:31:07.973Z,100850.38
2023-04-22T03:33:34.425Z,100859.06
2023-04-22T03:36:00.889Z,100866.75
2023-04-22T03:38:27.541Z,100849.91
2023-04-22T03:40:54.050Z,100859.44
2023-04-22T03:43:20.510Z,100852.09
2023-04-22T03:45:47.124Z,100845.91
2023-04-22T03:48:13.695Z,100855.31
2023-04-22T03:50:40.133Z,100832.56
2023-04-22T03:53:06.566Z,100849.91
2023-04-22T03:55:33.709Z,100864.50
2023-04-22T03:58:00.192Z,100861.38
2023-04-22T04:00:26.812Z,100859.84
2023-04-22T04:02:53.441Z,100867.06
2023-04-22T04:05:20.035Z,100864.50
2023-04-22T04:07:46.554Z,100854.78
2023-04-22T04:10:13.055Z,100858.22
2023-04-22T04:12:39.529Z,100854.41
2023-04-22T04:15:07.079Z,100842.59
2023-04-22T04:17:33.602Z,100868.50
2023-04-22T04:20:00.055Z,100859.09
2023-04-22T04:22:28.008Z,100857.28
2023-04-22T04:24:55.972Z,100859.56
2023-04-22T04:27:24.371Z,100866.03
2023-04-22T04:29:50.857Z,100840.47
2023-04-22T04:32:18.358Z,100852.47
2023-04-22T04:34:44.842Z,100856.22
2023-04-22T04:37:11.706Z,100842.09
2023-04-22T04:39:38.276Z,100866.47
2023-04-22T04:42:05.083Z,100848.03
2023-04-22T04:44:31.934Z,100858.38
2023-04-22T04:46:58.832Z,100857.44
2023-04-22T04:49:26.118Z,100845.44
2023-04-22T04:51:52.539Z,100866.75
2023-04-22T04:54:19.024Z,100845.94
2023-04-22T04:56:45.592Z,100856.16
2023-04-22T04:59:12.068Z,100869.41
2023-04-22T05:01:38.787Z,100868.06
2023-04-22T05:04:05.727Z,100871.53
2023-04-22T05:06:33.818Z,100868.44
2023-04-22T05:09:00.334Z,100857.44
2023-04-22T05:11:27.179Z,100871.47
2023-04-22T05:13:53.650Z,100869.38
2023-04-22T05:16:20.275Z,100868.91
2023-04-22T05:18:46.781Z,100856.91
2023-04-22T05:21:13.438Z,100846.38
2023-04-22T05:23:39.886Z,100845.84
2023-04-22T05:26:06.395Z,100858.06
2023-04-22T05:28:32.909Z,100848.28
2023-04-22T05:30:59.375Z,100849.41
2023-04-22T05:33:25.865Z,100846.41
2023-04-22T05:35:52.454Z,100852.94
2023-04-22T05:38:18.951Z,100856.22
2023-04-22T05:40:45.408Z,100857.53
2023-04-22T05:43:11.962Z,100853.69
2023-04-22T05:45:38.505Z,100853.06
2023-04-22T05:48:05.134Z,100845.84
2023-04-22T05:50:31.740Z,100860.63
2023-04-22T05:52:58.249Z,100855.78
2023-04-22T05:55:24.868Z,100858.47
2023-04-22T05:57:51.642Z,100857.84
2023-04-22T06:00:18.193Z,100873.22
2023-04-22T06:02:44.782Z,100867.81
2023-04-22T06:05:11.414Z,100853.84
2023-04-22T06:07:37.950Z,100839.41
2023-04-22T06:10:05.610Z,100848.81
2023-04-22T06:12:33.710Z,100849.78
2023-04-22T06:15:00.776Z,100864.34
2023-04-22T06:17:27.288Z,100864.22
2023-04-22T06:19:53.800Z,100864.38
2023-04-22T06:22:21.579Z,100869.22
2023-04-22T06:24:48.365Z,100867.06
2023-04-22T06:27:14.942Z,100869.97
2023-04-22T06:29:43.739Z,100856.25
2023-04-22T06:32:10.228Z,100864.19
2023-04-22T06:34:38.684Z,100862.09
2023-04-22T06:37:06.270Z,100857.47
2023-04-22T06:39:32.782Z,100852.44
2023-04-22T06:41:59.285Z,100866.84
2023-04-22T06:44:25.967Z,100854.81
2023-04-22T06:46:56.579Z,100873.91
2023-04-22T06:49:24.491Z,100851.84
2023-04-22T06:51:51.013Z,100845.34
2023-04-22T06:54:17.587Z,100849.78
2023-04-22T06:56:44.127Z,100849.59
2023-04-22T06:59:10.777Z,100841.31
2023-04-22T07:01:37.330Z,100856.41
2023-04-22T07:04:03.850Z,100843.44
2023-04-22T07:06:30.773Z,100849.41
2023-04-22T07:08:57.276Z,100850.53
2023-04-22T07:11:23.861Z,100837.00
2023-04-22T07:13:50.488Z,100853.97
2023-04-22T07:16:17.055Z,100826.09
2023-04-22T07:18:43.624Z,100834.63
2023-04-22T07:21:10.410Z,100838.53
2023-04-22T07:23:36.870Z,100857.88
2023-04-22T07:26:05.798Z,100835.09
2023-04-22T07:28:32.467Z,100851.75
2023-04-22T07:30:58.895Z,100833.53
2023-04-22T07:33:25.428Z,100839.75
2023-04-22T07:35:59.010Z,100836.09
2023-04-22T07:38:26.085Z,100835.97
2023-04-22T07:40:52.504Z,100854.59
2023-04-22T07:43:19.078Z,100837.63
2023-04-22T07:45:45.812Z,100804.47
2023-04-22T07:48:12.219Z,100848.84
2023-04-22T07:50:39.288Z,100840.31
2023-04-22T07:53:06.195Z,100827.38
2023-04-22T07:55:32.780Z,100819.63
2023-04-22T07:58:01.234Z,100796.22
2023-04-22T08:00:27.905Z,100798.06
2023-04-22T08:02:54.554Z,100802.66
2023-04-22T08:05:21.095Z,100818.44
2023-04-22T08:07:47.701Z,100807.28
2023-04-22T08:10:14.427Z,100787.91
2023-04-22T08:12:41.076Z,100784.41
2023-04-22T08:15:07.750Z,100809.06
2023-04-22T08:17:34.470Z,100807.94
2023-04-22T08:20:01.018Z,100774.31
2023-04-22T08:22:27.666Z,100779.91
2023-04-22T08:24:54.274Z,100795.78
2023-04-22T08:27:23.877Z,100805.63
2023-04-22T08:29:50.429Z,100806.47
2023-04-22T08:32:18.862Z,100790.19
2023-04-22T08:37:16.867Z,100792.34
2023-04-22T08:39:43.379Z,100794.19
2023-04-22T08:42:10.554Z,100779.94
2023-04-22T08:44:39.436Z,100779.22
2023-04-22T08:47:06.587Z,100787.13
2023-04-22T08:49:36.137Z,100799.44
2023-04-22T08:52:02.597Z,100780.44
2023-04-22T08:54:29.077Z,100778.59
2023-04-22T08:56:56.911Z,100791.44
2023-04-22T08:59:23.808Z,100778.91
2023-04-22T09:01:54.126Z,100789.56
2023-04-22T09:04:21.024Z,100798.75
2023-04-22T09:06:47.607Z,100782.66
2023-04-22T09:09:14.612Z,100773.09
2023-04-22T09:11:41.422Z,100788.72
2023-04-22T09:14:07.892Z,100787.09
2023-04-22T09:16:42.299Z,100748.81
2023-04-22T09:19:12.239Z,100765.78
2023-04-22T09:21:40.793Z,100786.97
2023-04-22T09:24:08.699Z,100775.00
2023-04-22T09:26:39.827Z,100778.81
2023-04-22T09:29:09.416Z,100770.75
2023-04-22T09:31:38.003Z,100762.78
2023-04-22T09:34:05.245Z,100756.00
2023-04-22T09:36:37.779Z,100756.38
2023-04-22T09:39:09.464Z,100762.34
2023-04-22T09:41:38.862Z,100753.91
2023-04-22T09:44:09.977Z,100744.75
2023-04-22T09:46:36.627Z,100723.56
2023-04-22T09:49:03.162Z,100738.69
2023-04-22T09:51:30.755Z,100741.56
2023-04-22T09:54:06.486Z,100734.31
2023-04-22T09:56:42.452Z,100735.47
2023-04-22T09:59:09.515Z,100726.66
2023-04-22T10:01:41.211Z,100731.09
2023-04-22T10:04:13.976Z,100729.69
2023-04-22T10:06:41.352Z,100727.13
2023-04-22T10:09:09.421Z,100719.38
2023-04-22T10:11:36.337Z,100716.97
2023-04-22T10:14:02.932Z,100715.94
2023-04-22T10:16:32.681Z,100719.88
2023-04-22T10:19:02.873Z,100715.25
2023-04-22T10:21:31.543Z,100709.19
2023-04-22T10:24:01.308Z,100703.69
2023-04-22T10:26:49.545Z,100699.09
2023-04-22T10:29:20.765Z,100688.94
2023-04-22T10:31:57.376Z,100685.56
2023-04-22T10:34:24.363Z,100677.38
2023-04-22T10:36:53.821Z,100681.81
2023-04-22T10:39:23.362Z,100675.66
2023-04-22T10:41:55.482Z,100639.38
2023-04-22T10:44:23.516Z,100677.63
2023-04-22T10:46:53.123Z,100682.31
2023-04-22T10:49:21.490Z,100662.69
2023-04-22T10:51:58.514Z,100678.63
2023-04-22T10:54:37.143Z,100670.63
2023-04-22T10:57:04.886Z,100661.69
2023-04-22T10:59:33.184Z,100666.16
2023-04-22T11:02:06.848Z,100662.25
2023-04-22T11:04:33.685Z,100646.03
2023-04-22T11:07:27.643Z,100650.00
2023-04-22T11:10:07.556Z,100672.19
2023-04-22T11:12:40.040Z,100671.31
2023-04-22T11:15:07.466Z,100668.41
2023-04-22T11:17:35.390Z,100646.03
2023-04-22T11:20:03.088Z,100648.41
2023-04-22T11:22:34.339Z,100645.59
2023-04-22T11:25:01.562Z,100638.88
2023-04-22T11:27:27.994Z,100629.72
2023-04-22T11:30:05.671Z,100646.03
2023-04-22T11:32:32.530Z,100617.03
2023-04-22T11:35:04.620Z,100633.66
2023-04-22T11:37:31.173Z,100624.19
2023-04-22T11:40:27.403Z,100630.19
2023-04-22T11:42:48.972Z,100640.63
2023-04-22T11:45:16.229Z,100642.50
2023-04-22T11:47:43.339Z,100632.03
2023-04-22T11:50:12.105Z,100634.53
2023-04-22T11:52:58.923Z,100627.19
2023-04-22T11:55:32.339Z,100616.31
2023-04-22T11:58:18.356Z,100636.38
2023-04-22T12:00:49.786Z,100620.34
2023-04-22T12:03:22.540Z,100613.69
2023-04-22T12:05:57.762Z,100599.91
2023-04-22T12:08:26.358Z,100608.38
2023-04-22T12:10:56.016Z,100612.38
2023-04-22T12:13:25.718Z,100614.91
2023-04-22T12:16:01.127Z,100594.31
2023-04-22T12:18:31.841Z,100616.56
2023-04-22T12:21:07.850Z,100616.06
2023-04-22T12:23:51.321Z,100603.00
2023-04-22T12:26:19.901Z,100612.59
2023-04-22T12:28:47.076Z,100586.06
2023-04-22T12:31:15.063Z,100612.53
2023-04-22T12:33:42.301Z,100615.63
2023-04-22T12:36:08.923Z,100596.75
2023-04-22T12:38:35.309Z,100606.56
2023-04-22T12:41:03.073Z,100600.22
2023-04-22T12:43:29.717Z,100599.97
2023-04-22T12:45:56.113Z,100594.81
2023-04-22T12:48:22.582Z,100594.03
2023-04-22T12:50:49.018Z,100595.97
2023-04-22T12:53:16.262Z,100576.16
2023-04-22T12:55:45.319Z,100572.69
2023-04-22T12:58:12.754Z,100568.66
2023-04-22T13:00:39.168Z,100580.25
2023-04-22T13:03:05.746Z,100568.56
2023-04-22T13:05:32.478Z,100580.75
2023-04-22T13:08:06.577Z,100573.47
2023-04-22T13:10:34.750Z,100577.34
2023-04-22T13:13:16.760Z,100558.66
2023-04-22T13:15:44.911Z,100549.47
2023-04-22T13:18:11.617Z,100560.41
2023-04-22T13:20:38.246Z,100532.75
2023-04-22T13:23:07.114Z,100549.28
2023-04-22T13:25:33.630Z,100543.72
2023-04-22T13:28:00.129Z,100542.59
2023-04-22T13:30:26.667Z,100538.44
2023-04-22T13:32:53.222Z,100547.53
2023-04-22T13:35:19.761Z,100537.47
2023-04-22T13:37:47.138Z,100526.88
2023-04-22T13:40:13.693Z,100529.63
2023-04-22T13:42:40.177Z,100530.13
2023-04-22T13:45:07.584Z,100498.22
2023-04-22T13:47:34.081Z,100506.50
2023-04-22T13:50:02.111Z,100509.81
2023-04-22T13:52:29.027Z,100500.59
2023-04-22T13:54:55.499Z,100508.22
2023-04-22T13:57:23.260Z,100500.50
2023-04-22T13:59:50.746Z,100491.97
2023-04-22T14:02:17.734Z,100488.78
2023-04-22T14:04:44.386Z,100475.03
2023-04-22T14:07:11.246Z,100481.44
2023-04-22T14:09:37.979Z,100483.50
2023-04-22T14:12:06.753Z,100483.94
2023-04-22T14:14:33.189Z,100462.84
2023-04-22T14:16:59.997Z,100482.38
2023-04-22T14:19:28.927Z,100472.13
2023-04-22T14:21:55.800Z,100461.13
2023-04-22T14:24:24.276Z,100468.13
2023-04-22T14:26:54.262Z,100474.09
2023-04-22T14:29:21.114Z,100457.63
2023-04-22T14:31:49.870Z,100454.47
2023-04-22T14:34:16.877Z,100441.31
2023-04-22T14:36:44.030Z,100443.38
2023-04-22T14:39:10.499Z,100446.31
2023-04-22T14:41:36.958Z,100446.16
2023-04-22T14:44:03.482Z,100438.63
2023-04-22T14:46:30.582Z,100436.94
2023-04-22T14:48:57.070Z,100452.34
2023-04-22T14:51:23.546Z,100452.47
2023-04-22T14:53:49.986Z,100448.09
2023-04-22T14:56:16.675Z,100428.75
2023-04-22T14:58:43.052Z,100446.66
2023-04-22T15:01:09.608Z,100434.84
2023-04-22T15:03:36.547Z,100440.13
2023-04-22T15:06:03.321Z,100425.25
2023-04-22T15:08:29.757Z,100425.84
2023-04-22T15:10:56.997Z,100414.72
2023-04-22T15:13:23.713Z,100418.38
2023-04-22T15:15:50.455Z,100402.53
2023-04-22T15:18:17.204Z,100415.25
2023-04-22T15:20:43.697Z,100415.78
2023-04-22T15:23:10.339Z,100419.75
2023-04-22T15:25:36.845Z,100413.59
2023-04-22T15:28:04.153Z,100422.56
2023-04-22T15:30:30.669Z,100398.66
2023-04-22T15:32:57.209Z,100408.84
2023-04-22T15:35:23.998Z,100405.63
2023-04-22T15:37:52.804Z,100403.91
2023-04-22T15:40:19.583Z,100395.59
2023-04-22T15:42:46.157Z,100390.41
2023-04-22T15:45:12.576Z,100394.56
2023-04-22T15:47:41.234Z,100391.97
2023-04-22T15:50:09.730Z,100372.72
2023-04-22T15:52:37.917Z,100382.72
2023-04-22T15:55:05.801Z,100386.94
2023-04-22T15:57:34.733Z,100373.94
2023-04-22T16:00:13.059Z,100364.00
2023-04-22T16:02:41.033Z,100371.72
2023-04-22T16:05:07.981Z,100372.81
2023-04-22T16:07:34.601Z,100363.22
2023-04-22T16:10:01.044Z,100371.91
2023-04-22T16:12:27.523Z,100373.34
2023-04-22T16:14:54.069Z,100352.66
2023-04-22T16:17:20.991Z,100355.84
2023-04-22T16:19:47.566Z,100357.81
2023-04-22T16:22:13.993Z,100347.78
2023-04-22T16:24:43.277Z,100345.91
2023-04-22T16:27:10.714Z,100351.22
2023-04-22T16:29:37.040Z,100355.00
2023-04-22T16:32:03.698Z,100353.13
2023-04-22T16:34:30.599Z,100352.75
2023-04-22T16:36:57.042Z,100337.28
2023-04-22T16:39:23.468Z,100329.25
2023-04-22T16:41:50.098Z,100334.13
2023-04-22T16:44:16.603Z,100339.38
2023-04-22T16:46:43.172Z,100343.84
2023-04-22T16:49:10.568Z,100343.31
2023-04-22T16:51:37.380Z,100331.94
2023-04-22T16:54:04.121Z,100345.94
2023-04-22T16:56:30.683Z,100344.03
2023-04-22T16:58:57.044Z,100344.28
2023-04-22T17:01:24.260Z,100321.94
2023-04-22T17:03:51.074Z,100321.63
2023-04-22T17:06:18.083Z,100323.78
2023-04-22T17:08:44.813Z,100318.50
2023-04-22T17:11:11.950Z,100329.56
2023-04-22T17:13:38.461Z,100331.84
2023-04-22T17:16:05.143Z,100321.63
2023-04-22T17:18:31.730Z,100318.19
2023-04-22T17:20:58.149Z,100331.84
2023-04-22T17:23:24.669Z,100323.28
2023-04-22T17:25:51.125Z,100319.59
2023-04-22T17:28:17.579Z,100329.94
2023-04-22T17:30:44.417Z,100330.44
2023-04-22T17:33:11.088Z,100328.44
2023-04-22T17:35:38.677Z,100307.09
2023-04-22T17:38:05.096Z,100319.00
2023-04-22T17:40:34.648Z,100315.78
2023-04-22T17:43:03.878Z,100328.47
2023-04-22T17:45:30.319Z,100316.78
2023-04-22T17:47:58.507Z,100316.78
2023-04-22T17:50:27.756Z,100329.34
2023-04-22T17:52:54.562Z,100310.88
2023-04-22T17:55:23.564Z,100333.16
2023-04-22T17:57:50.129Z,100323.47
2023-04-22T18:00:18.124Z,100299.13
2023-04-22T18:02:44.762Z,100320.94
2023-04-22T18:05:17.671Z,100302.66
2023-04-22T18:07:44.157Z,100312.78
2023-04-22T18:10:11.733Z,100309.88
2023-04-22T18:12:41.543Z,100324.56
2023-04-22T18:15:08.570Z,100319.44
2023-04-22T18:17:37.283Z,100317.63
2023-04-22T18:20:16.770Z,100320.03
2023-04-22T18:22:46.715Z,100332.28
2023-04-22T19:21:03.489Z,100332.06
2023-04-22T19:23:30.052Z,100329.44
2023-04-22T19:25:58.170Z,100342.25
2023-04-22T19:28:24.813Z,100336.38
2023-04-22T19:30:51.832Z,100331.56
2023-04-22T19:33:21.184Z,100359.34
2023-04-22T19:35:52.447Z,100338.31
2023-04-22T19:38:23.187Z,100345.59
2023-04-22T19:40:50.745Z,100328.34
2023-04-22T19:43:19.156Z,100286.03
2023-04-22T19:46:01.130Z,100315.19
2023-04-22T19:48:28.138Z,100328.84
2023-04-22T19:50:54.877Z,100289.91
2023-04-22T19:53:22.633Z,100333.50
2023-04-22T19:55:49.619Z,100329.34
2023-04-22T19:58:17.014Z,100312.06
2023-04-22T20:00:43.925Z,100311.63
2023-04-22T20:03:10.888Z,100305.66
2023-04-22T20:05:40.330Z,100292.94
2023-04-22T20:08:08.443Z,100321.94
2023-04-22T20:10:35.172Z,100303.97
2023-04-22T20:13:03.629Z,100309.34
2023-04-22T20:15:30.566Z,100302.41
2023-04-22T20:17:57.255Z,100314.03
2023-04-22T20:20:24.070Z,100306.97
2023-04-22T20:22:53.079Z,100295.25
2023-04-22T20:25:21.854Z,100293.09
2023-04-22T20:27:48.702Z,100279.94
2023-04-22T20:30:15.216Z,100302.00
2023-04-22T20:32:42.402Z,100273.28
2023-04-22T20:35:15.019Z,100285.03
2023-04-22T20:37:42.667Z,100285.16
2023-04-22T20:40:09.953Z,100279.50
2023-04-22T20:42:37.137Z,100257.81
2023-04-22T20:45:07.500Z,100242.41
2023-04-22T20:47:35.506Z,100280.91
2023-04-22T20:50:02.076Z,100283.88
2023-04-22T20:52:31.805Z,100281.34
2023-04-22T20:54:58.676Z,100273.00
2023-04-22T20:57:25.149Z,100283.47
2023-04-22T20:59:52.013Z,100251.03
2023-04-22T21:02:20.006Z,100269.16
2023-04-22T21:04:47.128Z,100259.81
2023-04-22T21:07:15.791Z,100242.13
2023-04-22T21:09:43.263Z,100271.28
2023-04-22T21:12:10.786Z,100267.34
2023-04-22T21:14:43.296Z,100266.31
2023-04-22T21:17:19.845Z,100262.06
2023-04-22T21:19:49.643Z,100261.19
2023-04-22T21:22:21.503Z,100250.16
2023-04-22T21:24:49.688Z,100264.59
2023-04-22T21:27:21.626Z,100266.31
2023-04-22T21:29:49.464Z,100251.28
2023-04-22T21:32:17.120Z,100261.78
2023-04-22T21:34:44.619Z,100270.00
2023-04-22T21:37:11.647Z,100255.97
2023-04-22T21:39:38.124Z,100262.19
2023-04-22T21:42:07.929Z,100258.13
2023-04-22T21:44:37.199Z,100253.00
2023-04-22T21:47:04.171Z,100240.31
2023-04-22T21:49:30.611Z,100255.09
2023-04-22T21:51:57.191Z,100240.22
2023-04-22T21:54:23.673Z,100250.56
2023-04-22T21:56:50.911Z,100240.25
2023-04-22T21:59:17.379Z,100236.69
2023-04-22T22:01:43.888Z,100231.03
2023-04-22T22:04:10.973Z,100244.31
2023-04-22T22:06:38.943Z,100229.84
2023-04-22T22:09:07.146Z,100238.78
2023-04-22T22:11:33.823Z,100239.91
2023-04-22T22:14:00.382Z,100224.00
2023-04-22T22:16:27.142Z,100233.06
2023-04-22T22:18:55.699Z,100233.81
2023-04-22T22:21:22.168Z,100237.47
2023-04-22T22:23:48.590Z,100234.09
2023-04-22T22:26:15.240Z,100240.72
2023-04-22T22:28:41.645Z,100232.06
2023-04-22T22:31:08.421Z,100230.81
2023-04-22T22:33:34.828Z,100227.63
2023-04-22T22:36:01.342Z,100233.53
2023-04-22T22:38:27.804Z,100233.59
2023-04-22T22:40:54.339Z,100229.59
2023-04-22T22:43:20.751Z,100237.59
2023-04-22T22:45:47.308Z,100221.72
2023-04-22T22:48:13.926Z,100237.00
2023-04-22T22:50:40.556Z,100227.81
2023-04-22T22:53:06.968Z,100234.75
2023-04-22T22:55:34.166Z,100230.50
2023-04-22T22:58:00.787Z,100222.81
2023-04-22T23:00:27.519Z,100232.69
2023-04-22T23:02:54.397Z,100216.94
2023-04-22T23:05:21.613Z,100210.00
2023-04-22T23:07:48.070Z,100227.56
2023-04-22T23:10:14.484Z,100217.75
2023-04-22T23:12:41.148Z,100210.94
2023-04-22T23:15:08.052Z,100212.91
2023-04-22T23:17:35.257Z,100207.66
2023-04-22T23:20:02.915Z,100211.59
2023-04-22T23:22:30.770Z,100212.81
2023-04-22T23:24:57.439Z,100201.41
2023-04-22T23:27:24.225Z,100195.63
2023-04-22T23:29:50.854Z,100199.25
2023-04-22T23:32:19.588Z,100189.69
2023-04-22T23:34:49.449Z,100174.69
2023-04-22T23:37:16.195Z,100181.97
2023-04-22T23:39:43.062Z,100171.88
2023-04-22T23:42:09.561Z,100167.50
2023-04-22T23:44:36.081Z,100177.72
2023-04-22T23:47:03.104Z,100181.34
2023-04-22T23:49:29.723Z,100190.72
2023-04-22T23:51:56.305Z,100185.22
2023-04-22T23:54:22.972Z,100182.66
2023-04-22T23:56:49.701Z,100181.09
2023-04-22T23:59:16.260Z,100183.94
